createdAt,value
2023-04-15T00:00:00.374Z,12.98
2023-04-15T00:02:28.804Z,19.42
2023-04-15T00:04:57.237Z,19.30
2023-04-15T00:07:25.624Z,21.42
2023-04-15T00:09:53.837Z,31.17
2023-04-15T00:12:22.569Z,37.33
2023-04-15T00:14:50.982Z,35.03
2023-04-15T00:17:19.388Z,32.42
2023-04-15T00:19:47.745Z,34.70
2023-04-15T00:22:16.298Z,29.92
2023-04-15T00:24:44.482Z,34.40
2023-04-15T00:27:12.938Z,38.08
2023-04-15T00:29:40.980Z,27.90
2023-04-15T00:32:09.524Z,16.92
2023-04-15T00:34:37.712Z,11.07
2023-04-15T00:37:05.924Z,8.13
2023-04-15T00:39:34.142Z,8.82
2023-04-15T00:42:04.706Z,8.43
2023-04-15T00:44:33.290Z,9.60
2023-04-15T00:47:02.179Z,7.88
2023-04-15T00:49:30.459Z,9.00
2023-04-15T00:51:58.772Z,9.75
2023-04-15T00:54:26.997Z,8.48
2023-04-15T00:56:55.292Z,8.48
2023-04-15T00:59:23.373Z,8.10
2023-04-15T01:01:52.038Z,8.93
2023-04-15T01:04:20.566Z,7.80
2023-04-15T01:06:49.078Z,8.93
2023-04-15T01:09:17.313Z,7.95
2023-04-15T01:11:45.803Z,8.05
2023-04-15T01:14:14.795Z,8.50
2023-04-15T01:16:43.012Z,8.32
2023-04-15T01:19:12.120Z,8.57
2023-04-15T01:21:40.639Z,9.02
2023-04-15T01:24:11.144Z,10.25
2023-04-15T01:26:43.498Z,9.43
2023-04-15T01:29:12.866Z,8.63
2023-04-15T01:31:41.013Z,9.73
2023-04-15T01:34:09.207Z,10.00
2023-04-15T01:36:37.455Z,9.43
2023-04-15T01:39:05.778Z,7.70
2023-04-15T01:41:33.967Z,8.65
2023-04-15T01:44:02.218Z,9.27
2023-04-15T01:46:30.628Z,9.85
2023-04-15T01:48:59.166Z,10.18
2023-04-15T01:51:27.533Z,9.13
2023-04-15T01:53:55.847Z,9.20
2023-04-15T01:56:24.885Z,9.50
2023-04-15T01:58:53.855Z,9.63
2023-04-15T02:01:22.041Z,10.50
2023-04-15T02:03:50.532Z,7.88
2023-04-15T02:06:18.811Z,8.35
2023-04-15T02:08:47.114Z,7.90
2023-04-15T02:11:15.153Z,6.95
2023-04-15T02:13:43.330Z,7.30
2023-04-15T02:16:19.065Z,7.22
2023-04-15T02:18:47.777Z,7.57
2023-04-15T02:21:16.163Z,9.32
2023-04-15T02:23:44.513Z,10.93
2023-04-15T02:26:14.888Z,11.25
2023-04-15T02:28:43.119Z,11.45
2023-04-15T02:31:11.374Z,12.00
2023-04-15T02:33:39.659Z,12.18
2023-04-15T02:36:07.806Z,12.50
2023-04-15T02:38:36.120Z,13.13
2023-04-15T02:41:04.459Z,10.60
2023-04-15T02:43:32.819Z,11.95
2023-04-15T02:46:01.124Z,12.07
2023-04-15T02:48:29.363Z,12.18
2023-04-15T02:51:18.751Z,11.13
2023-04-15T02:53:48.225Z,12.75
2023-04-15T02:56:17.311Z,9.95
2023-04-15T02:58:46.231Z,11.55
2023-04-15T03:01:14.666Z,10.38
2023-04-15T03:03:43.510Z,9.90
2023-04-15T03:06:12.298Z,12.95
2023-04-15T03:08:42.012Z,10.88
2023-04-15T03:11:10.381Z,9.98
2023-04-15T03:13:38.778Z,10.10
2023-04-15T03:16:12.878Z,10.38
2023-04-15T03:18:42.769Z,11.05
2023-04-15T03:21:11.197Z,12.15
2023-04-15T03:23:40.567Z,11.15
2023-04-15T03:26:08.782Z,11.57
2023-04-15T03:28:37.529Z,12.27
2023-04-15T03:31:05.814Z,11.48
2023-04-15T03:33:33.907Z,10.70
2023-04-15T03:36:02.214Z,9.85
2023-04-15T03:38:30.388Z,9.15
2023-04-15T03:40:58.705Z,9.52
2023-04-15T03:43:26.757Z,9.63
2023-04-15T03:45:55.054Z,8.35
2023-04-15T03:48:23.309Z,10.07
2023-04-15T03:50:51.541Z,9.60
2023-04-15T03:53:19.687Z,8.38
2023-04-15T03:55:47.814Z,10.30
2023-04-15T03:58:16.094Z,8.88
2023-04-15T04:00:44.333Z,8.35
2023-04-15T04:03:12.767Z,8.07
2023-04-15T04:05:41.266Z,9.18
2023-04-15T04:08:09.459Z,8.65
2023-04-15T04:10:37.771Z,8.00
2023-04-15T04:13:05.871Z,9.80
2023-04-15T04:15:34.190Z,8.25
2023-04-15T04:18:02.405Z,13.18
2023-04-15T04:20:31.182Z,12.55
2023-04-15T04:22:59.499Z,12.23
2023-04-15T04:25:27.664Z,9.30
2023-04-15T04:27:55.947Z,8.55
2023-04-15T04:30:24.207Z,11.15
2023-04-15T04:32:52.496Z,10.52
2023-04-15T04:35:20.725Z,9.93
2023-04-15T04:37:49.180Z,8.10
2023-04-15T04:40:17.597Z,8.48
2023-04-15T04:42:45.647Z,8.85
2023-04-15T04:45:13.916Z,12.80
2023-04-15T04:47:42.107Z,13.20
2023-04-15T04:50:10.601Z,23.13
2023-04-15T04:52:38.934Z,25.75
2023-04-15T04:55:07.570Z,22.45
2023-04-15T04:57:35.790Z,28.35
2023-04-15T05:00:04.572Z,26.55
2023-04-15T05:02:33.298Z,28.13
2023-04-15T05:05:01.735Z,28.05
2023-04-15T05:07:30.066Z,28.90
2023-04-15T05:09:58.238Z,31.40
2023-04-15T05:12:26.428Z,30.40
2023-04-15T05:14:54.566Z,38.22
2023-04-15T05:17:22.831Z,40.92
2023-04-15T05:19:51.260Z,34.15
2023-04-15T05:22:19.426Z,34.30
2023-04-15T05:24:47.650Z,33.97
2023-04-15T05:27:15.773Z,32.08
2023-04-15T05:29:44.001Z,31.27
2023-04-15T05:32:12.095Z,31.50
2023-04-15T05:34:40.250Z,30.13
2023-04-15T05:37:08.491Z,30.95
2023-04-15T05:39:36.741Z,29.00
2023-04-15T05:42:04.952Z,28.38
2023-04-15T05:44:33.407Z,32.88
2023-04-15T05:47:01.622Z,32.42
2023-04-15T05:49:29.979Z,31.70
2023-04-15T05:51:57.989Z,30.98
2023-04-15T05:54:26.269Z,29.80
2023-04-15T05:56:55.069Z,33.97
2023-04-15T05:59:23.415Z,36.67
2023-04-15T06:01:51.510Z,37.95
2023-04-15T06:04:19.915Z,35.90
2023-04-15T06:06:48.185Z,33.50
2023-04-15T06:09:16.354Z,35.00
2023-04-15T06:11:44.566Z,35.67
2023-04-15T06:14:12.757Z,33.40
2023-04-15T06:16:41.240Z,30.83
2023-04-15T06:19:10.046Z,30.20
2023-04-15T06:21:38.555Z,29.77
2023-04-15T06:24:06.989Z,27.65
2023-04-15T06:26:35.170Z,29.05
2023-04-15T06:29:03.671Z,29.13
2023-04-15T06:31:31.976Z,27.27
2023-04-15T06:34:00.242Z,27.38
2023-04-15T06:36:28.364Z,27.00
2023-04-15T06:38:56.738Z,28.00
2023-04-15T06:41:25.293Z,28.02
2023-04-15T06:43:53.487Z,28.35
2023-04-15T06:46:21.776Z,27.55
2023-04-15T06:48:49.971Z,28.02
2023-04-15T06:51:18.115Z,29.38
2023-04-15T06:53:46.300Z,30.30
2023-04-15T06:56:14.549Z,28.48
2023-04-15T06:58:42.829Z,26.92
2023-04-15T07:01:11.021Z,25.70
2023-04-15T07:03:39.424Z,24.02
2023-04-15T07:06:07.614Z,24.48
2023-04-15T07:08:36.008Z,22.95
2023-04-15T07:11:04.084Z,24.00
2023-04-15T07:13:33.043Z,25.38
2023-04-15T07:16:01.246Z,20.85
2023-04-15T07:18:29.556Z,20.95
2023-04-15T07:20:57.749Z,23.17
2023-04-15T07:23:25.941Z,24.55
2023-04-15T07:25:54.215Z,21.70
2023-04-15T07:28:22.570Z,22.20
2023-04-15T07:30:50.813Z,23.25
2023-04-15T07:33:19.188Z,21.15
2023-04-15T07:35:47.375Z,19.38
2023-04-15T07:38:15.853Z,18.90
2023-04-15T07:40:44.044Z,20.58
2023-04-15T07:43:12.415Z,20.40
2023-04-15T07:45:40.657Z,17.33
2023-04-15T07:48:09.010Z,17.45
2023-04-15T07:50:37.126Z,17.10
2023-04-15T07:53:05.305Z,18.30
2023-04-15T07:55:33.656Z,19.33
2023-04-15T07:58:01.992Z,18.48
2023-04-15T08:00:30.138Z,19.83
2023-04-15T08:02:58.412Z,21.15
2023-04-15T08:05:26.840Z,17.75
2023-04-15T08:07:55.017Z,21.83
2023-04-15T08:10:23.313Z,20.98
2023-04-15T08:12:51.644Z,20.77
2023-04-15T08:15:19.908Z,18.00
2023-04-15T08:17:48.470Z,18.67
2023-04-15T08:20:17.030Z,19.05
2023-04-15T08:22:45.435Z,16.40
2023-04-15T08:25:13.646Z,17.33
2023-04-15T08:27:41.893Z,18.52
2023-04-15T08:30:10.483Z,16.83
2023-04-15T08:32:38.620Z,17.77
2023-04-15T08:35:07.731Z,13.77
2023-04-15T08:37:35.899Z,13.70
2023-04-15T08:40:04.497Z,10.90
2023-04-15T08:42:37.326Z,11.73
2023-04-15T08:45:06.267Z,11.93
2023-04-15T08:47:34.765Z,12.02
2023-04-15T08:50:05.028Z,13.38
2023-04-15T08:52:33.459Z,12.55
2023-04-15T08:55:03.778Z,12.30
2023-04-15T08:57:33.600Z,13.23
2023-04-15T09:00:05.361Z,13.10
2023-04-15T09:02:34.136Z,13.93
2023-04-15T09:05:02.820Z,12.43
2023-04-15T09:07:31.116Z,14.38
2023-04-15T09:09:59.289Z,14.48
2023-04-15T09:12:27.696Z,15.68
2023-04-15T09:14:55.784Z,12.93
2023-04-15T09:17:24.088Z,16.13
2023-04-15T09:20:09.348Z,12.55
2023-04-15T09:22:38.176Z,12.15
2023-04-15T09:25:26.634Z,11.88
2023-04-15T09:27:57.191Z,9.68
2023-04-15T09:30:25.646Z,14.30
2023-04-15T09:32:55.734Z,13.65
2023-04-15T09:35:25.599Z,10.38
2023-04-15T09:37:54.905Z,13.45
2023-04-15T09:40:41.062Z,9.00
2023-04-15T09:43:10.929Z,12.07
2023-04-15T09:45:39.241Z,10.55
2023-04-15T09:48:19.411Z,6.65
2023-04-15T09:50:49.548Z,7.93
2023-04-15T09:53:19.766Z,9.07
2023-04-15T09:55:52.376Z,7.05
2023-04-15T09:58:31.487Z,8.63
2023-04-15T10:01:00.864Z,10.32
2023-04-15T10:03:31.319Z,10.52
2023-04-15T10:06:01.802Z,13.40
2023-04-15T10:08:35.202Z,6.95
2023-04-15T10:11:04.261Z,10.18
2023-04-15T10:13:33.401Z,7.68
2023-04-15T10:16:17.012Z,11.27
2023-04-15T10:18:46.930Z,11.75
2023-04-15T10:21:16.026Z,8.27
2023-04-15T10:23:45.777Z,7.03
2023-04-15T10:26:14.505Z,10.65
2023-04-15T10:28:43.158Z,18.23
2023-04-15T10:31:14.137Z,13.93
2023-04-15T10:33:44.701Z,21.30
2023-04-15T10:36:13.377Z,15.47
2023-04-15T10:38:45.844Z,16.70
2023-04-15T10:41:17.993Z,16.20
2023-04-15T10:44:06.474Z,19.88
2023-04-15T10:46:41.750Z,12.13
2023-04-15T10:49:14.230Z,14.75
2023-04-15T10:51:48.002Z,11.52
2023-04-15T10:54:31.151Z,9.63
2023-04-15T10:57:02.377Z,20.65
2023-04-15T10:59:36.654Z,44.90
2023-04-15T11:02:08.752Z,15.27
2023-04-15T11:04:57.919Z,30.63
2023-04-15T11:07:47.433Z,16.83
2023-04-15T11:10:18.791Z,20.55
2023-04-15T11:12:47.998Z,13.15
2023-04-15T11:15:37.463Z,24.35
2023-04-15T11:18:13.145Z,6.63
2023-04-15T11:20:47.069Z,10.13
2023-04-15T11:23:35.385Z,12.45
2023-04-15T11:26:05.993Z,19.08
2023-04-15T11:28:34.776Z,8.02
2023-04-15T11:31:12.038Z,10.73
2023-04-15T11:33:56.659Z,19.80
2023-04-15T11:36:30.545Z,16.98
2023-04-15T11:39:00.255Z,8.93
2023-04-15T11:41:28.478Z,9.15
2023-04-15T11:43:56.944Z,10.63
2023-04-15T11:46:31.137Z,10.20
2023-04-15T11:48:59.510Z,12.95
2023-04-15T11:51:32.404Z,10.38
2023-04-15T11:54:00.918Z,8.38
2023-04-15T11:56:29.355Z,9.90
2023-04-15T11:58:59.033Z,9.88
2023-04-15T12:01:33.182Z,14.93
2023-04-15T12:04:01.881Z,12.88
2023-04-15T12:06:34.445Z,8.55
2023-04-15T12:09:18.842Z,8.18
2023-04-15T12:11:49.246Z,8.32
2023-04-15T12:14:24.189Z,13.00
2023-04-15T12:16:55.182Z,12.43
2023-04-15T12:19:30.928Z,8.55
2023-04-15T12:22:04.956Z,7.18
2023-04-15T12:24:35.486Z,7.03
2023-04-15T12:27:06.281Z,7.53
2023-04-15T12:29:36.275Z,6.93
2023-04-15T12:32:09.783Z,8.13
2023-04-15T12:34:50.800Z,10.60
2023-04-15T12:37:20.213Z,6.78
2023-04-15T12:39:50.766Z,6.70
2023-04-15T12:42:19.290Z,8.38
2023-04-15T12:44:47.792Z,7.70
2023-04-15T12:47:16.365Z,5.80
2023-04-15T12:49:44.466Z,6.03
2023-04-15T12:52:12.729Z,5.90
2023-04-15T12:54:41.014Z,6.82
2023-04-15T12:57:09.389Z,6.20
2023-04-15T12:59:37.531Z,7.35
2023-04-15T13:02:06.053Z,8.07
2023-04-15T13:04:34.352Z,6.63
2023-04-15T13:07:03.631Z,6.40
2023-04-15T13:09:31.788Z,7.57
2023-04-15T13:12:01.592Z,8.90
2023-04-15T13:14:29.857Z,7.05
2023-04-15T13:16:58.183Z,6.80
2023-04-15T13:19:26.469Z,9.45
2023-04-15T13:21:54.692Z,8.55
2023-04-15T13:24:23.167Z,6.90
2023-04-15T13:26:51.518Z,7.18
2023-04-15T13:29:19.658Z,5.78
2023-04-15T13:31:48.113Z,7.65
2023-04-15T13:34:16.222Z,6.03
2023-04-15T13:36:44.471Z,6.82
2023-04-15T13:39:12.769Z,7.90
2023-04-15T13:41:41.369Z,6.35
2023-04-15T13:44:09.524Z,7.30
2023-04-15T13:46:37.908Z,5.22
2023-04-15T13:49:05.997Z,7.57
2023-04-15T13:51:34.290Z,7.07
2023-04-15T13:54:02.871Z,5.50
2023-04-15T13:56:32.101Z,6.97
2023-04-15T13:59:01.432Z,6.85
2023-04-15T14:01:30.273Z,6.22
2023-04-15T14:03:58.469Z,6.38
2023-04-15T14:06:26.858Z,6.55
2023-04-15T14:08:55.877Z,5.15
2023-04-15T14:11:23.997Z,6.93
2023-04-15T14:13:52.253Z,7.18
2023-04-15T14:16:20.479Z,6.60
2023-04-15T14:18:48.611Z,7.35
2023-04-15T14:21:17.008Z,6.20
2023-04-15T14:23:45.333Z,6.80
2023-04-15T14:26:13.506Z,7.75
2023-04-15T14:28:41.873Z,7.03
2023-04-15T14:31:09.973Z,6.72
2023-04-15T14:33:38.194Z,6.05
2023-04-15T14:36:07.432Z,6.95
2023-04-15T14:38:36.442Z,7.05
2023-04-15T14:41:08.448Z,9.25
2023-04-15T14:43:37.111Z,8.00
2023-04-15T14:46:05.582Z,10.60
2023-04-15T14:48:33.846Z,7.80
2023-04-15T14:51:02.154Z,8.98
2023-04-15T14:53:30.462Z,12.73
2023-04-15T14:55:58.682Z,9.23
2023-04-15T14:58:26.938Z,7.00
2023-04-15T15:00:55.066Z,6.65
2023-04-15T15:03:24.313Z,7.63
2023-04-15T15:05:52.733Z,9.30
2023-04-15T15:08:20.864Z,8.45
2023-04-15T15:10:50.018Z,6.50
2023-04-15T15:13:18.878Z,6.43
2023-04-15T15:15:47.311Z,6.50
2023-04-15T15:18:16.270Z,6.22
2023-04-15T15:20:44.357Z,11.88
2023-04-15T15:23:14.579Z,15.85
2023-04-15T15:25:44.176Z,12.73
2023-04-15T15:28:12.758Z,10.93
2023-04-15T15:30:40.910Z,16.10
2023-04-15T15:33:09.100Z,15.25
2023-04-15T15:35:37.344Z,20.17
2023-04-15T15:38:05.662Z,14.43
2023-04-15T15:40:33.779Z,11.57
2023-04-15T15:43:01.963Z,10.98
2023-04-15T15:45:30.790Z,13.27
2023-04-15T15:47:59.443Z,8.48
2023-04-15T15:50:27.604Z,7.05
2023-04-15T15:53:06.157Z,6.15
2023-04-15T15:55:34.949Z,8.30
2023-04-15T15:58:03.140Z,7.78
2023-04-15T16:00:31.706Z,9.40
2023-04-15T16:05:30.984Z,8.98
2023-04-15T16:07:59.123Z,7.25
2023-04-15T16:10:27.411Z,9.80
2023-04-15T16:12:55.818Z,10.00
2023-04-15T16:15:25.892Z,7.95
2023-04-15T16:17:54.048Z,8.30
2023-04-15T16:20:22.109Z,9.68
2023-04-15T16:22:50.585Z,8.32
2023-04-15T16:25:18.875Z,11.30
2023-04-15T16:28:00.779Z,10.48
2023-04-15T16:30:31.819Z,9.88
2023-04-15T16:33:00.181Z,15.55
2023-04-15T16:35:28.440Z,7.68
2023-04-15T16:37:56.635Z,9.30
2023-04-15T16:40:25.358Z,26.83
2023-04-15T16:42:53.723Z,27.10
2023-04-15T16:45:22.053Z,14.80
2023-04-15T16:47:50.306Z,17.05
2023-04-15T16:50:18.580Z,13.73
2023-04-15T16:52:46.920Z,29.90
2023-04-15T16:55:15.060Z,9.90
2023-04-15T16:58:02.742Z,11.20
2023-04-15T17:00:34.559Z,9.50
2023-04-15T17:03:03.550Z,14.70
2023-04-15T17:05:31.861Z,19.58
2023-04-15T17:08:00.350Z,11.32
2023-04-15T17:10:28.941Z,12.90
2023-04-15T17:12:58.306Z,12.40
2023-04-15T17:15:27.195Z,13.88
2023-04-15T17:17:55.719Z,38.38
2023-04-15T17:20:24.389Z,31.45
2023-04-15T17:22:52.697Z,13.57
2023-04-15T17:25:21.088Z,9.00
2023-04-15T17:27:49.477Z,13.02
2023-04-15T17:30:17.684Z,11.93
2023-04-15T17:32:46.063Z,11.88
2023-04-15T17:35:14.196Z,12.27
2023-04-15T17:37:42.389Z,12.65
2023-04-15T17:40:11.224Z,85.45
2023-04-15T17:42:39.333Z,28.23
2023-04-15T17:45:08.351Z,16.60
2023-04-15T17:47:36.779Z,76.35
2023-04-15T17:50:05.131Z,18.35
2023-04-15T17:52:33.395Z,11.32
2023-04-15T17:55:01.678Z,12.55
2023-04-15T17:57:30.144Z,13.30
2023-04-15T17:59:58.640Z,75.25
2023-04-15T18:02:27.016Z,42.00
2023-04-15T18:04:55.391Z,89.22
2023-04-15T18:07:23.746Z,62.90
2023-04-15T18:09:52.734Z,39.20
2023-04-15T18:12:20.922Z,26.48
2023-04-15T18:14:49.097Z,13.00
2023-04-15T18:17:18.022Z,109.40
2023-04-15T18:19:54.919Z,88.13
2023-04-15T18:22:23.355Z,28.80
2023-04-15T18:24:51.704Z,47.20
2023-04-15T18:27:19.851Z,46.15
2023-04-15T18:29:48.062Z,18.48
2023-04-15T18:32:16.421Z,12.82
2023-04-15T18:34:44.474Z,13.07
2023-04-15T18:37:12.802Z,14.85
2023-04-15T18:39:41.018Z,13.13
2023-04-15T18:42:09.063Z,12.40
2023-04-15T18:44:37.312Z,12.75
2023-04-15T18:47:05.606Z,14.35
2023-04-15T18:49:33.779Z,19.95
2023-04-15T18:52:01.923Z,18.17
2023-04-15T18:54:30.164Z,27.08
2023-04-15T18:56:58.361Z,43.65
2023-04-15T18:59:29.325Z,26.88
2023-04-15T19:02:00.068Z,174.57
2023-04-15T19:04:29.002Z,416.95
2023-04-15T19:06:57.509Z,250.02
2023-04-15T19:09:25.867Z,55.75
2023-04-15T19:11:54.145Z,24.48
2023-04-15T19:14:22.499Z,141.35
2023-04-15T19:16:50.826Z,40.60
2023-04-15T19:19:19.139Z,87.20
2023-04-15T19:21:47.636Z,86.05
2023-04-15T19:24:19.669Z,24.77
2023-04-15T19:26:51.234Z,15.80
2023-04-15T19:29:19.422Z,16.33
2023-04-15T19:31:47.615Z,164.88
2023-04-15T19:34:15.829Z,85.05
2023-04-15T19:36:44.051Z,271.40
2023-04-15T19:39:12.515Z,297.50
2023-04-15T19:41:40.811Z,160.23
2023-04-15T19:44:09.185Z,35.38
2023-04-15T19:46:37.519Z,12.02
2023-04-15T19:49:05.982Z,41.00
2023-04-15T19:51:34.644Z,64.65
2023-04-15T19:54:02.957Z,41.67
2023-04-15T19:56:32.937Z,37.53
2023-04-15T19:59:02.871Z,47.10
2023-04-15T20:01:31.629Z,38.10
2023-04-15T20:03:59.961Z,51.22
2023-04-15T20:06:28.501Z,112.63
2023-04-15T20:08:57.047Z,68.60
2023-04-15T20:11:25.208Z,91.53
2023-04-15T20:14:13.518Z,126.18
2023-04-15T20:16:41.661Z,135.00
2023-04-15T20:19:09.828Z,35.85
2023-04-15T20:21:38.605Z,52.33
2023-04-15T20:24:07.136Z,160.65
2023-04-15T20:26:35.509Z,208.18
2023-04-15T20:29:04.034Z,68.95
2023-04-15T20:31:32.406Z,239.38
2023-04-15T20:34:00.862Z,168.50
2023-04-15T20:36:28.991Z,258.67
2023-04-15T20:38:57.279Z,138.45
2023-04-15T20:41:25.473Z,234.48
2023-04-15T20:43:53.755Z,371.60
2023-04-15T20:46:22.005Z,358.92
2023-04-15T20:48:50.732Z,334.92
2023-04-15T20:51:19.144Z,184.55
2023-04-15T20:53:47.342Z,114.47
2023-04-15T20:56:15.654Z,161.52
2023-04-15T20:58:43.735Z,401.83
2023-04-15T21:01:12.102Z,435.40
2023-04-15T21:03:40.449Z,375.85
2023-04-15T21:06:08.916Z,299.90
2023-04-15T21:08:37.118Z,157.98
2023-04-15T21:11:05.302Z,216.40
2023-04-15T21:13:34.179Z,328.92
2023-04-15T21:16:02.496Z,303.67
2023-04-15T21:18:30.698Z,175.75
2023-04-15T21:21:02.962Z,202.55
2023-04-15T21:23:31.667Z,178.68
2023-04-15T21:25:59.985Z,104.50
2023-04-15T21:28:28.310Z,48.53
2023-04-15T21:30:59.333Z,39.67
2023-04-15T21:33:27.876Z,31.97
2023-04-15T21:35:56.096Z,238.10
2023-04-15T21:38:24.363Z,219.13
2023-04-15T21:40:52.697Z,285.20
2023-04-15T21:43:20.991Z,278.80
2023-04-15T21:46:22.274Z,289.77
2023-04-15T21:48:37.681Z,273.83
2023-04-15T21:51:06.048Z,335.35
2023-04-15T21:53:34.425Z,148.43
2023-04-15T21:56:02.718Z,54.47
2023-04-15T21:58:30.876Z,340.95
2023-04-15T22:00:59.369Z,115.97
2023-04-15T22:03:31.027Z,85.65
2023-04-15T22:06:03.110Z,61.13
2023-04-15T22:08:38.570Z,33.25
2023-04-15T22:11:10.834Z,34.22
2023-04-15T22:13:38.937Z,74.03
2023-04-15T22:16:07.270Z,85.75
2023-04-15T22:18:35.661Z,63.30
2023-04-15T22:21:04.423Z,59.75
2023-04-15T22:23:32.832Z,38.80
2023-04-15T22:26:01.114Z,41.78
2023-04-15T22:28:29.429Z,62.00
2023-04-15T22:30:57.751Z,24.67
2023-04-15T22:33:26.079Z,50.75
2023-04-15T22:35:54.587Z,52.85
2023-04-15T22:38:22.875Z,79.10
2023-04-15T22:40:51.596Z,40.45
2023-04-15T22:43:19.848Z,25.75
2023-04-15T22:45:52.052Z,24.75
2023-04-15T22:48:20.327Z,22.45
2023-04-15T22:50:48.899Z,41.90
2023-04-15T22:53:17.865Z,43.17
2023-04-15T22:55:47.520Z,34.22
2023-04-15T22:58:16.911Z,26.63
2023-04-15T23:00:45.465Z,23.92
2023-04-15T23:03:13.964Z,18.27
2023-04-15T23:05:42.950Z,19.23
2023-04-15T23:08:11.454Z,18.08
2023-04-15T23:10:40.003Z,15.25
2023-04-15T23:13:08.139Z,15.10
2023-04-15T23:15:36.521Z,15.93
2023-04-15T23:18:04.881Z,13.60
2023-04-15T23:20:33.590Z,17.25
2023-04-15T23:23:01.837Z,14.65
2023-04-15T23:25:30.296Z,14.38
2023-04-15T23:27:58.623Z,16.25
2023-04-15T23:30:27.170Z,22.17
2023-04-15T23:32:55.523Z,30.80
2023-04-15T23:35:23.946Z,28.02
2023-04-15T23:37:52.477Z,36.65
2023-04-15T23:40:20.897Z,35.45
2023-04-15T23:42:49.148Z,19.00
2023-04-15T23:45:17.417Z,19.10
2023-04-15T23:47:45.857Z,15.98
2023-04-15T23:50:14.354Z,13.90
2023-04-15T23:52:42.459Z,11.30
2023-04-15T23:55:10.924Z,10.73
2023-04-15T23:57:39.147Z,11.43
